sensor_id;sensor_type;location;lat;lon;timestamp;P1;durP1;ratioP1;P2;durP2;ratioP2
317;SDS011;146;53.448;10.228;2023-09-30T00:00:08;4.83;;;3.20;;
317;SDS011;146;53.448;10.228;2023-09-30T00:02:39;7.30;;;4.10;;
317;SDS011;146;53.448;10.228;2023-09-30T00:05:06;5.40;;;3.83;;
317;SDS011;146;53.448;10.228;2023-09-30T00:07:35;5.27;;;2.70;;
317;SDS011;146;53.448;10.228;2023-09-30T00:10:02;6.50;;;3.50;;
317;SDS011;146;53.448;10.228;2023-09-30T00:12:29;10.30;;;4.40;;
317;SDS011;146;53.448;10.228;2023-09-30T00:14:56;5.90;;;3.87;;
317;SDS011;146;53.448;10.228;2023-09-30T00:17:24;5.80;;;4.00;;
317;SDS011;146;53.448;10.228;2023-09-30T00:20:00;10.17;;;4.20;;
317;SDS011;146;53.448;10.228;2023-09-30T00:22:35;6.00;;;3.77;;
317;SDS011;146;53.448;10.228;2023-09-30T00:25:02;7.33;;;3.33;;
317;SDS011;146;53.448;10.228;2023-09-30T00:27:32;9.13;;;4.40;;
317;SDS011;146;53.448;10.228;2023-09-30T00:30:02;8.33;;;3.60;;
317;SDS011;146;53.448;10.228;2023-09-30T00:32:35;8.00;;;3.90;;
317;SDS011;146;53.448;10.228;2023-09-30T00:35:02;11.13;;;4.40;;
317;SDS011;146;53.448;10.228;2023-09-30T00:37:32;9.97;;;3.83;;
317;SDS011;146;53.448;10.228;2023-09-30T00:39:59;9.23;;;3.93;;
317;SDS011;146;53.448;10.228;2023-09-30T00:42:26;8.63;;;4.73;;
317;SDS011;146;53.448;10.228;2023-09-30T00:44:54;7.40;;;4.23;;
317;SDS011;146;53.448;10.228;2023-09-30T00:47:21;11.20;;;3.87;;
317;SDS011;146;53.448;10.228;2023-09-30T00:49:50;10.43;;;3.70;;
317;SDS011;146;53.448;10.228;2023-09-30T00:52:25;5.20;;;3.43;;
317;SDS011;146;53.448;10.228;2023-09-30T00:54:52;6.13;;;4.47;;
317;SDS011;146;53.448;10.228;2023-09-30T00:57:22;8.57;;;3.80;;
317;SDS011;146;53.448;10.228;2023-09-30T00:59:51;6.87;;;3.90;;
317;SDS011;146;53.448;10.228;2023-09-30T01:02:24;6.43;;;4.17;;
317;SDS011;146;53.448;10.228;2023-09-30T01:04:54;9.83;;;4.37;;
317;SDS011;146;53.448;10.228;2023-09-30T01:07:22;5.93;;;3.60;;
317;SDS011;146;53.448;10.228;2023-09-30T01:09:48;5.20;;;3.17;;
317;SDS011;146;53.448;10.228;2023-09-30T01:12:16;10.77;;;3.93;;
317;SDS011;146;53.448;10.228;2023-09-30T01:14:45;8.73;;;3.97;;
317;SDS011;146;53.448;10.228;2023-09-30T01:17:12;8.87;;;3.87;;
317;SDS011;146;53.448;10.228;2023-09-30T01:19:39;7.33;;;4.00;;
317;SDS011;146;53.448;10.228;2023-09-30T01:22:11;6.63;;;3.60;;
317;SDS011;146;53.448;10.228;2023-09-30T01:24:38;6.80;;;3.87;;
317;SDS011;146;53.448;10.228;2023-09-30T01:27:06;7.87;;;3.93;;
317;SDS011;146;53.448;10.228;2023-09-30T01:29:33;13.03;;;4.10;;
317;SDS011;146;53.448;10.228;2023-09-30T01:32:00;4.50;;;3.00;;
317;SDS011;146;53.448;10.228;2023-09-30T01:34:30;6.87;;;3.57;;
317;SDS011;146;53.448;10.228;2023-09-30T01:36:56;9.90;;;3.87;;
317;SDS011;146;53.448;10.228;2023-09-30T01:39:25;7.97;;;4.70;;
317;SDS011;146;53.448;10.228;2023-09-30T01:41:51;9.00;;;3.37;;
317;SDS011;146;53.448;10.228;2023-09-30T01:44:21;7.50;;;3.80;;
317;SDS011;146;53.448;10.228;2023-09-30T01:46:51;7.20;;;3.50;;
317;SDS011;146;53.448;10.228;2023-09-30T01:49:21;5.47;;;3.40;;
317;SDS011;146;53.448;10.228;2023-09-30T01:51:49;6.77;;;4.23;;
317;SDS011;146;53.448;10.228;2023-09-30T01:54:16;7.70;;;4.20;;
317;SDS011;146;53.448;10.228;2023-09-30T01:56:47;7.40;;;3.50;;
317;SDS011;146;53.448;10.228;2023-09-30T01:59:15;8.20;;;4.63;;
317;SDS011;146;53.448;10.228;2023-09-30T02:01:47;9.90;;;3.90;;
317;SDS011;146;53.448;10.228;2023-09-30T02:04:15;7.23;;;3.83;;
317;SDS011;146;53.448;10.228;2023-09-30T02:06:47;9.50;;;4.10;;
317;SDS011;146;53.448;10.228;2023-09-30T02:09:22;7.27;;;3.67;;
317;SDS011;146;53.448;10.228;2023-09-30T02:11:50;12.77;;;4.93;;
317;SDS011;146;53.448;10.228;2023-09-30T02:14:17;9.33;;;4.27;;
317;SDS011;146;53.448;10.228;2023-09-30T02:16:44;7.63;;;4.00;;
317;SDS011;146;53.448;10.228;2023-09-30T02:19:11;8.80;;;3.70;;
317;SDS011;146;53.448;10.228;2023-09-30T02:21:38;7.77;;;3.80;;
317;SDS011;146;53.448;10.228;2023-09-30T02:24:05;9.50;;;4.20;;
317;SDS011;146;53.448;10.228;2023-09-30T02:26:32;8.80;;;4.70;;
317;SDS011;146;53.448;10.228;2023-09-30T02:29:00;6.43;;;4.50;;
317;SDS011;146;53.448;10.228;2023-09-30T02:31:27;7.27;;;3.87;;
317;SDS011;146;53.448;10.228;2023-09-30T02:33:54;9.90;;;4.20;;
317;SDS011;146;53.448;10.228;2023-09-30T02:36:21;9.20;;;4.43;;
317;SDS011;146;53.448;10.228;2023-09-30T02:38:51;8.67;;;5.20;;
317;SDS011;146;53.448;10.228;2023-09-30T02:41:18;6.53;;;4.13;;
317;SDS011;146;53.448;10.228;2023-09-30T02:43:47;13.40;;;4.40;;
317;SDS011;146;53.448;10.228;2023-09-30T02:46:18;6.20;;;4.40;;
317;SDS011;146;53.448;10.228;2023-09-30T02:48:45;10.13;;;4.50;;
317;SDS011;146;53.448;10.228;2023-09-30T02:51:15;10.73;;;5.90;;
317;SDS011;146;53.448;10.228;2023-09-30T02:53:45;8.40;;;4.43;;
317;SDS011;146;53.448;10.228;2023-09-30T02:56:13;13.47;;;5.10;;
317;SDS011;146;53.448;10.228;2023-09-30T02:58:40;8.30;;;5.63;;
317;SDS011;146;53.448;10.228;2023-09-30T03:01:14;13.23;;;5.53;;
317;SDS011;146;53.448;10.228;2023-09-30T03:03:45;9.57;;;4.77;;
317;SDS011;146;53.448;10.228;2023-09-30T03:06:15;9.70;;;4.87;;
317;SDS011;146;53.448;10.228;2023-09-30T03:08:52;9.13;;;4.77;;
317;SDS011;146;53.448;10.228;2023-09-30T03:11:19;8.43;;;5.70;;
317;SDS011;146;53.448;10.228;2023-09-30T03:13:46;6.60;;;4.87;;
317;SDS011;146;53.448;10.228;2023-09-30T03:16:16;6.43;;;3.97;;
317;SDS011;146;53.448;10.228;2023-09-30T03:18:56;8.87;;;5.20;;
317;SDS011;146;53.448;10.228;2023-09-30T03:21:23;14.63;;;5.83;;
317;SDS011;146;53.448;10.228;2023-09-30T03:23:53;9.20;;;5.33;;
317;SDS011;146;53.448;10.228;2023-09-30T03:26:19;7.30;;;4.60;;
317;SDS011;146;53.448;10.228;2023-09-30T03:28:46;6.00;;;4.80;;
317;SDS011;146;53.448;10.228;2023-09-30T03:31:20;15.23;;;5.00;;
317;SDS011;146;53.448;10.228;2023-09-30T03:33:47;10.47;;;5.07;;
317;SDS011;146;53.448;10.228;2023-09-30T03:36:19;9.60;;;5.53;;
317;SDS011;146;53.448;10.228;2023-09-30T03:38:47;10.13;;;5.30;;
317;SDS011;146;53.448;10.228;2023-09-30T03:41:14;8.80;;;5.77;;
317;SDS011;146;53.448;10.228;2023-09-30T03:43:41;12.50;;;5.33;;
317;SDS011;146;53.448;10.228;2023-09-30T03:46:07;6.43;;;4.67;;
317;SDS011;146;53.448;10.228;2023-09-30T03:48:44;10.33;;;5.10;;
317;SDS011;146;53.448;10.228;2023-09-30T03:51:17;10.57;;;4.87;;
317;SDS011;146;53.448;10.228;2023-09-30T03:53:44;12.93;;;5.47;;
317;SDS011;146;53.448;10.228;2023-09-30T03:56:11;9.70;;;5.10;;
317;SDS011;146;53.448;10.228;2023-09-30T03:58:38;11.03;;;6.90;;
317;SDS011;146;53.448;10.228;2023-09-30T04:01:06;7.50;;;5.00;;
317;SDS011;146;53.448;10.228;2023-09-30T04:03:36;9.70;;;5.50;;
317;SDS011;146;53.448;10.228;2023-09-30T04:06:05;7.90;;;4.83;;
317;SDS011;146;53.448;10.228;2023-09-30T04:08:34;8.53;;;4.43;;
317;SDS011;146;53.448;10.228;2023-09-30T04:11:01;14.13;;;5.20;;
317;SDS011;146;53.448;10.228;2023-09-30T04:13:29;8.50;;;5.00;;
317;SDS011;146;53.448;10.228;2023-09-30T04:15:56;7.43;;;5.50;;
317;SDS011;146;53.448;10.228;2023-09-30T04:18:23;10.53;;;5.13;;
317;SDS011;146;53.448;10.228;2023-09-30T04:20:51;7.67;;;4.27;;
317;SDS011;146;53.448;10.228;2023-09-30T04:23:19;6.67;;;4.40;;
317;SDS011;146;53.448;10.228;2023-09-30T04:25:47;8.43;;;4.40;;
317;SDS011;146;53.448;10.228;2023-09-30T04:28:14;11.60;;;4.23;;
317;SDS011;146;53.448;10.228;2023-09-30T04:30:45;8.07;;;4.60;;
317;SDS011;146;53.448;10.228;2023-09-30T04:33:14;10.90;;;5.03;;
317;SDS011;146;53.448;10.228;2023-09-30T04:35:49;8.03;;;5.27;;
317;SDS011;146;53.448;10.228;2023-09-30T04:38:19;9.77;;;4.73;;
317;SDS011;146;53.448;10.228;2023-09-30T04:40:46;7.70;;;4.23;;
317;SDS011;146;53.448;10.228;2023-09-30T04:43:17;9.20;;;4.40;;
317;SDS011;146;53.448;10.228;2023-09-30T04:45:44;11.57;;;5.63;;
317;SDS011;146;53.448;10.228;2023-09-30T04:48:11;9.07;;;4.97;;
317;SDS011;146;53.448;10.228;2023-09-30T04:50:43;8.40;;;5.23;;
317;SDS011;146;53.448;10.228;2023-09-30T04:53:10;8.80;;;5.07;;
317;SDS011;146;53.448;10.228;2023-09-30T04:55:39;10.00;;;4.90;;
317;SDS011;146;53.448;10.228;2023-09-30T04:58:06;8.77;;;5.40;;
317;SDS011;146;53.448;10.228;2023-09-30T05:00:33;12.13;;;5.93;;
317;SDS011;146;53.448;10.228;2023-09-30T05:03:00;7.90;;;4.83;;
317;SDS011;146;53.448;10.228;2023-09-30T05:05:27;8.87;;;5.27;;
317;SDS011;146;53.448;10.228;2023-09-30T05:07:54;11.40;;;5.37;;
317;SDS011;146;53.448;10.228;2023-09-30T05:10:23;12.17;;;6.40;;
317;SDS011;146;53.448;10.228;2023-09-30T05:12:52;6.33;;;5.13;;
317;SDS011;146;53.448;10.228;2023-09-30T05:15:20;9.93;;;4.93;;
317;SDS011;146;53.448;10.228;2023-09-30T05:17:48;12.80;;;5.67;;
317;SDS011;146;53.448;10.228;2023-09-30T05:20:15;12.07;;;5.00;;
317;SDS011;146;53.448;10.228;2023-09-30T05:22:43;10.87;;;5.40;;
317;SDS011;146;53.448;10.228;2023-09-30T05:25:11;8.80;;;4.60;;
317;SDS011;146;53.448;10.228;2023-09-30T05:27:38;9.37;;;4.70;;
317;SDS011;146;53.448;10.228;2023-09-30T05:30:07;6.23;;;4.40;;
317;SDS011;146;53.448;10.228;2023-09-30T05:32:36;10.63;;;5.00;;
317;SDS011;146;53.448;10.228;2023-09-30T05:35:03;12.67;;;5.20;;
317;SDS011;146;53.448;10.228;2023-09-30T05:37:37;10.30;;;5.17;;
317;SDS011;146;53.448;10.228;2023-09-30T05:40:05;9.63;;;4.73;;
317;SDS011;146;53.448;10.228;2023-09-30T05:42:41;12.10;;;5.47;;
317;SDS011;146;53.448;10.228;2023-09-30T05:45:10;6.23;;;4.27;;
317;SDS011;146;53.448;10.228;2023-09-30T05:47:38;6.20;;;4.50;;
317;SDS011;146;53.448;10.228;2023-09-30T05:50:06;9.50;;;4.80;;
317;SDS011;146;53.448;10.228;2023-09-30T05:52:39;7.20;;;4.60;;
317;SDS011;146;53.448;10.228;2023-09-30T05:55:06;8.10;;;5.27;;
317;SDS011;146;53.448;10.228;2023-09-30T05:57:34;8.53;;;5.30;;
317;SDS011;146;53.448;10.228;2023-09-30T06:00:01;11.63;;;5.63;;
317;SDS011;146;53.448;10.228;2023-09-30T06:02:33;14.63;;;4.97;;
317;SDS011;146;53.448;10.228;2023-09-30T06:05:03;12.10;;;5.27;;
317;SDS011;146;53.448;10.228;2023-09-30T06:07:30;13.53;;;5.20;;
317;SDS011;146;53.448;10.228;2023-09-30T06:09:59;8.20;;;4.70;;
317;SDS011;146;53.448;10.228;2023-09-30T06:12:31;9.13;;;5.30;;
317;SDS011;146;53.448;10.228;2023-09-30T06:14:58;6.60;;;4.83;;
317;SDS011;146;53.448;10.228;2023-09-30T06:17:28;6.27;;;4.53;;
317;SDS011;146;53.448;10.228;2023-09-30T06:19:59;8.83;;;4.57;;
317;SDS011;146;53.448;10.228;2023-09-30T06:22:33;7.33;;;5.30;;
317;SDS011;146;53.448;10.228;2023-09-30T06:42:09;6.63;;;4.40;;
317;SDS011;146;53.448;10.228;2023-09-30T06:44:36;9.93;;;4.73;;
317;SDS011;146;53.448;10.228;2023-09-30T06:47:02;10.30;;;5.43;;
317;SDS011;146;53.448;10.228;2023-09-30T06:49:33;7.83;;;4.80;;
317;SDS011;146;53.448;10.228;2023-09-30T06:52:03;7.67;;;5.10;;
317;SDS011;146;53.448;10.228;2023-09-30T06:54:30;9.17;;;4.60;;
317;SDS011;146;53.448;10.228;2023-09-30T06:57:01;12.70;;;5.40;;
317;SDS011;146;53.448;10.228;2023-09-30T06:59:29;9.10;;;5.90;;
317;SDS011;146;53.448;10.228;2023-09-30T07:02:00;9.00;;;5.30;;
317;SDS011;146;53.448;10.228;2023-09-30T07:04:31;11.80;;;4.93;;
317;SDS011;146;53.448;10.228;2023-09-30T07:06:58;9.93;;;6.20;;
317;SDS011;146;53.448;10.228;2023-09-30T07:09:25;9.00;;;5.47;;
317;SDS011;146;53.448;10.228;2023-09-30T07:11:52;8.80;;;5.17;;
317;SDS011;146;53.448;10.228;2023-09-30T07:14:21;8.10;;;5.63;;
317;SDS011;146;53.448;10.228;2023-09-30T07:16:51;12.50;;;6.40;;
317;SDS011;146;53.448;10.228;2023-09-30T07:19:19;5.50;;;4.53;;
317;SDS011;146;53.448;10.228;2023-09-30T07:21:55;11.63;;;5.40;;
317;SDS011;146;53.448;10.228;2023-09-30T07:24:22;15.23;;;6.20;;
317;SDS011;146;53.448;10.228;2023-09-30T07:26:50;7.90;;;4.93;;
317;SDS011;146;53.448;10.228;2023-09-30T07:29:21;7.63;;;4.27;;
317;SDS011;146;53.448;10.228;2023-09-30T07:31:48;6.00;;;4.50;;
317;SDS011;146;53.448;10.228;2023-09-30T07:34:17;11.60;;;5.63;;
317;SDS011;146;53.448;10.228;2023-09-30T07:36:46;9.10;;;4.27;;
317;SDS011;146;53.448;10.228;2023-09-30T07:39:21;5.87;;;4.63;;
317;SDS011;146;53.448;10.228;2023-09-30T07:41:48;7.10;;;5.03;;
317;SDS011;146;53.448;10.228;2023-09-30T07:44:27;8.53;;;5.07;;
317;SDS011;146;53.448;10.228;2023-09-30T07:46:53;10.30;;;5.10;;
317;SDS011;146;53.448;10.228;2023-09-30T07:49:25;8.60;;;4.67;;
317;SDS011;146;53.448;10.228;2023-09-30T07:51:58;9.80;;;4.73;;
317;SDS011;146;53.448;10.228;2023-09-30T07:54:25;9.90;;;6.70;;
317;SDS011;146;53.448;10.228;2023-09-30T07:56:52;8.87;;;4.40;;
317;SDS011;146;53.448;10.228;2023-09-30T07:59:23;10.07;;;4.40;;
317;SDS011;146;53.448;10.228;2023-09-30T08:01:59;7.80;;;4.80;;
317;SDS011;146;53.448;10.228;2023-09-30T08:04:31;10.70;;;4.90;;
317;SDS011;146;53.448;10.228;2023-09-30T08:07:04;10.30;;;4.27;;
317;SDS011;146;53.448;10.228;2023-09-30T08:09:31;8.70;;;4.77;;
317;SDS011;146;53.448;10.228;2023-09-30T08:11:58;8.63;;;4.43;;
317;SDS011;146;53.448;10.228;2023-09-30T08:14:34;8.23;;;4.60;;
317;SDS011;146;53.448;10.228;2023-09-30T08:17:02;8.27;;;4.60;;
317;SDS011;146;53.448;10.228;2023-09-30T08:19:29;6.03;;;4.10;;
317;SDS011;146;53.448;10.228;2023-09-30T08:21:59;9.10;;;4.00;;
317;SDS011;146;53.448;10.228;2023-09-30T08:24:26;6.70;;;4.00;;
317;SDS011;146;53.448;10.228;2023-09-30T08:26:54;6.67;;;3.43;;
317;SDS011;146;53.448;10.228;2023-09-30T08:29:22;13.50;;;5.93;;
317;SDS011;146;53.448;10.228;2023-09-30T08:31:49;6.70;;;4.50;;
317;SDS011;146;53.448;10.228;2023-09-30T08:34:17;8.03;;;3.77;;
317;SDS011;146;53.448;10.228;2023-09-30T08:36:52;9.43;;;3.37;;
317;SDS011;146;53.448;10.228;2023-09-30T08:39:19;11.50;;;5.23;;
317;SDS011;146;53.448;10.228;2023-09-30T08:41:46;10.80;;;3.97;;
317;SDS011;146;53.448;10.228;2023-09-30T08:44:16;5.80;;;3.63;;
317;SDS011;146;53.448;10.228;2023-09-30T08:46:43;5.37;;;3.23;;
317;SDS011;146;53.448;10.228;2023-09-30T08:49:11;5.80;;;4.10;;
317;SDS011;146;53.448;10.228;2023-09-30T08:51:40;5.83;;;3.60;;
317;SDS011;146;53.448;10.228;2023-09-30T08:54:09;6.27;;;3.40;;
317;SDS011;146;53.448;10.228;2023-09-30T08:56:35;5.87;;;2.90;;
317;SDS011;146;53.448;10.228;2023-09-30T08:59:07;7.47;;;3.70;;
317;SDS011;146;53.448;10.228;2023-09-30T09:01:39;11.27;;;3.97;;
317;SDS011;146;53.448;10.228;2023-09-30T09:04:06;7.23;;;3.60;;
317;SDS011;146;53.448;10.228;2023-09-30T09:06:33;4.20;;;3.07;;
317;SDS011;146;53.448;10.228;2023-09-30T09:09:14;5.43;;;3.03;;
317;SDS011;146;53.448;10.228;2023-09-30T09:11:42;6.20;;;3.90;;
317;SDS011;146;53.448;10.228;2023-09-30T09:14:09;6.47;;;3.57;;
317;SDS011;146;53.448;10.228;2023-09-30T09:16:36;6.17;;;3.53;;
317;SDS011;146;53.448;10.228;2023-09-30T09:21:54;8.63;;;3.83;;
317;SDS011;146;53.448;10.228;2023-09-30T09:24:33;4.73;;;3.17;;
317;SDS011;146;53.448;10.228;2023-09-30T09:27:04;7.33;;;2.83;;
317;SDS011;146;53.448;10.228;2023-09-30T09:29:32;8.30;;;2.80;;
317;SDS011;146;53.448;10.228;2023-09-30T09:32:08;5.37;;;3.17;;
317;SDS011;146;53.448;10.228;2023-09-30T09:34:36;5.30;;;2.80;;
317;SDS011;146;53.448;10.228;2023-09-30T09:39:55;4.93;;;2.47;;
317;SDS011;146;53.448;10.228;2023-09-30T09:42:26;8.80;;;3.13;;
317;SDS011;146;53.448;10.228;2023-09-30T09:45:00;5.70;;;3.07;;
317;SDS011;146;53.448;10.228;2023-09-30T09:47:34;12.83;;;3.47;;
317;SDS011;146;53.448;10.228;2023-09-30T09:50:11;9.13;;;3.17;;
317;SDS011;146;53.448;10.228;2023-09-30T09:52:40;6.00;;;2.40;;
317;SDS011;146;53.448;10.228;2023-09-30T09:55:17;5.87;;;3.03;;
317;SDS011;146;53.448;10.228;2023-09-30T09:57:44;6.70;;;2.73;;
317;SDS011;146;53.448;10.228;2023-09-30T10:00:12;4.70;;;2.30;;
317;SDS011;146;53.448;10.228;2023-09-30T10:02:41;4.60;;;2.03;;
317;SDS011;146;53.448;10.228;2023-09-30T10:05:14;7.77;;;2.80;;
317;SDS011;146;53.448;10.228;2023-09-30T10:07:45;5.83;;;2.63;;
317;SDS011;146;53.448;10.228;2023-09-30T10:10:26;5.93;;;2.60;;
317;SDS011;146;53.448;10.228;2023-09-30T10:12:54;6.20;;;2.47;;
317;SDS011;146;53.448;10.228;2023-09-30T10:15:39;7.63;;;2.60;;
317;SDS011;146;53.448;10.228;2023-09-30T10:18:08;3.60;;;2.70;;
317;SDS011;146;53.448;10.228;2023-09-30T10:20:37;27.03;;;10.47;;
317;SDS011;146;53.448;10.228;2023-09-30T10:23:17;20.77;;;12.83;;
317;SDS011;146;53.448;10.228;2023-09-30T10:25:49;11.87;;;4.63;;
317;SDS011;146;53.448;10.228;2023-09-30T10:28:38;7.73;;;2.70;;
317;SDS011;146;53.448;10.228;2023-09-30T10:31:09;5.80;;;2.60;;
317;SDS011;146;53.448;10.228;2023-09-30T10:36:59;8.47;;;2.03;;
317;SDS011;146;53.448;10.228;2023-09-30T10:39:52;4.57;;;2.90;;
317;SDS011;146;53.448;10.228;2023-09-30T10:48:34;6.33;;;3.23;;
317;SDS011;146;53.448;10.228;2023-09-30T10:51:12;5.10;;;2.13;;
317;SDS011;146;53.448;10.228;2023-09-30T10:53:44;4.90;;;2.83;;
317;SDS011;146;53.448;10.228;2023-09-30T10:56:15;5.90;;;1.77;;
317;SDS011;146;53.448;10.228;2023-09-30T10:58:44;6.20;;;1.93;;
317;SDS011;146;53.448;10.228;2023-09-30T11:01:12;3.73;;;1.93;;
317;SDS011;146;53.448;10.228;2023-09-30T11:03:42;4.23;;;2.50;;
317;SDS011;146;53.448;10.228;2023-09-30T11:06:13;6.47;;;3.53;;
317;SDS011;146;53.448;10.228;2023-09-30T11:08:44;3.97;;;1.77;;
317;SDS011;146;53.448;10.228;2023-09-30T11:11:15;3.17;;;1.93;;
317;SDS011;146;53.448;10.228;2023-09-30T11:13:49;4.83;;;2.10;;
317;SDS011;146;53.448;10.228;2023-09-30T11:16:20;2.90;;;1.70;;
317;SDS011;146;53.448;10.228;2023-09-30T11:18:52;4.13;;;1.57;;
317;SDS011;146;53.448;10.228;2023-09-30T11:21:22;5.87;;;2.60;;
317;SDS011;146;53.448;10.228;2023-09-30T11:23:50;3.57;;;1.70;;
317;SDS011;146;53.448;10.228;2023-09-30T11:26:28;4.43;;;1.77;;
317;SDS011;146;53.448;10.228;2023-09-30T11:29:08;5.33;;;2.40;;
317;SDS011;146;53.448;10.228;2023-09-30T11:31:37;2.30;;;1.83;;
317;SDS011;146;53.448;10.228;2023-09-30T11:34:04;2.93;;;1.70;;
317;SDS011;146;53.448;10.228;2023-09-30T11:36:35;6.10;;;1.83;;
317;SDS011;146;53.448;10.228;2023-09-30T11:39:04;3.67;;;1.83;;
317;SDS011;146;53.448;10.228;2023-09-30T11:41:34;3.83;;;1.73;;
317;SDS011;146;53.448;10.228;2023-09-30T11:44:03;4.70;;;1.50;;
317;SDS011;146;53.448;10.228;2023-09-30T11:46:49;4.47;;;2.00;;
317;SDS011;146;53.448;10.228;2023-09-30T11:49:25;3.67;;;1.90;;
317;SDS011;146;53.448;10.228;2023-09-30T11:51:54;4.90;;;2.13;;
317;SDS011;146;53.448;10.228;2023-09-30T11:54:36;6.73;;;1.80;;
317;SDS011;146;53.448;10.228;2023-09-30T11:57:06;3.20;;;1.80;;
317;SDS011;146;53.448;10.228;2023-09-30T11:59:35;4.23;;;2.20;;
317;SDS011;146;53.448;10.228;2023-09-30T12:02:07;3.77;;;1.80;;
317;SDS011;146;53.448;10.228;2023-09-30T12:04:34;3.87;;;1.90;;
317;SDS011;146;53.448;10.228;2023-09-30T12:07:05;3.00;;;1.70;;
317;SDS011;146;53.448;10.228;2023-09-30T12:09:33;4.70;;;1.87;;
317;SDS011;146;53.448;10.228;2023-09-30T12:12:06;4.00;;;1.57;;
317;SDS011;146;53.448;10.228;2023-09-30T12:14:43;3.03;;;1.77;;
317;SDS011;146;53.448;10.228;2023-09-30T12:17:11;2.30;;;1.63;;
317;SDS011;146;53.448;10.228;2023-09-30T12:19:42;1.80;;;1.60;;
317;SDS011;146;53.448;10.228;2023-09-30T12:22:09;4.77;;;1.90;;
317;SDS011;146;53.448;10.228;2023-09-30T12:24:42;8.60;;;3.27;;
317;SDS011;146;53.448;10.228;2023-09-30T12:27:17;4.90;;;1.87;;
317;SDS011;146;53.448;10.228;2023-09-30T12:29:46;4.83;;;1.60;;
317;SDS011;146;53.448;10.228;2023-09-30T12:32:22;3.90;;;1.80;;
317;SDS011;146;53.448;10.228;2023-09-30T12:34:50;5.70;;;1.93;;
317;SDS011;146;53.448;10.228;2023-09-30T12:37:17;3.23;;;1.20;;
317;SDS011;146;53.448;10.228;2023-09-30T12:39:44;4.07;;;1.60;;
317;SDS011;146;53.448;10.228;2023-09-30T12:42:11;4.40;;;1.80;;
317;SDS011;146;53.448;10.228;2023-09-30T12:44:39;2.23;;;1.30;;
317;SDS011;146;53.448;10.228;2023-09-30T12:47:09;3.40;;;1.60;;
317;SDS011;146;53.448;10.228;2023-09-30T12:49:37;4.30;;;1.57;;
317;SDS011;146;53.448;10.228;2023-09-30T12:52:13;3.20;;;2.10;;
317;SDS011;146;53.448;10.228;2023-09-30T12:54:42;2.30;;;1.50;;
317;SDS011;146;53.448;10.228;2023-09-30T12:57:09;3.73;;;1.53;;
317;SDS011;146;53.448;10.228;2023-09-30T12:59:38;1.43;;;1.30;;
317;SDS011;146;53.448;10.228;2023-09-30T13:02:06;4.73;;;1.43;;
317;SDS011;146;53.448;10.228;2023-09-30T13:04:34;2.70;;;1.60;;
317;SDS011;146;53.448;10.228;2023-09-30T13:07:08;4.77;;;1.93;;
317;SDS011;146;53.448;10.228;2023-09-30T13:09:40;5.13;;;2.10;;
317;SDS011;146;53.448;10.228;2023-09-30T13:12:07;2.90;;;1.70;;
317;SDS011;146;53.448;10.228;2023-09-30T13:14:35;2.53;;;1.20;;
317;SDS011;146;53.448;10.228;2023-09-30T13:17:03;3.77;;;1.80;;
317;SDS011;146;53.448;10.228;2023-09-30T13:19:33;2.83;;;1.13;;
317;SDS011;146;53.448;10.228;2023-09-30T13:22:04;4.10;;;1.80;;
317;SDS011;146;53.448;10.228;2023-09-30T13:24:32;5.27;;;1.50;;
317;SDS011;146;53.448;10.228;2023-09-30T13:27:02;3.30;;;1.53;;
317;SDS011;146;53.448;10.228;2023-09-30T13:29:32;5.90;;;1.70;;
317;SDS011;146;53.448;10.228;2023-09-30T13:31:59;5.20;;;1.57;;
317;SDS011;146;53.448;10.228;2023-09-30T13:34:26;6.63;;;1.80;;
317;SDS011;146;53.448;10.228;2023-09-30T13:36:53;2.40;;;1.20;;
317;SDS011;146;53.448;10.228;2023-09-30T13:39:30;3.90;;;1.70;;
317;SDS011;146;53.448;10.228;2023-09-30T13:42:00;4.17;;;1.70;;
317;SDS011;146;53.448;10.228;2023-09-30T13:44:30;3.27;;;1.50;;
317;SDS011;146;53.448;10.228;2023-09-30T13:46:57;3.97;;;1.47;;
317;SDS011;146;53.448;10.228;2023-09-30T13:49:29;4.00;;;1.83;;
317;SDS011;146;53.448;10.228;2023-09-30T13:52:01;7.13;;;1.83;;
317;SDS011;146;53.448;10.228;2023-09-30T13:54:33;5.70;;;2.33;;
317;SDS011;146;53.448;10.228;2023-09-30T13:57:00;3.67;;;1.33;;
317;SDS011;146;53.448;10.228;2023-09-30T13:59:33;2.80;;;1.47;;
317;SDS011;146;53.448;10.228;2023-09-30T14:02:00;5.37;;;1.40;;
317;SDS011;146;53.448;10.228;2023-09-30T14:04:30;2.67;;;1.27;;
317;SDS011;146;53.448;10.228;2023-09-30T14:07:04;3.80;;;1.30;;
317;SDS011;146;53.448;10.228;2023-09-30T14:09:34;4.13;;;1.77;;
317;SDS011;146;53.448;10.228;2023-09-30T14:12:06;3.80;;;1.50;;
317;SDS011;146;53.448;10.228;2023-09-30T14:14:33;2.97;;;1.30;;
317;SDS011;146;53.448;10.228;2023-09-30T14:17:00;10.40;;;2.00;;
317;SDS011;146;53.448;10.228;2023-09-30T14:19:32;4.50;;;2.07;;
317;SDS011;146;53.448;10.228;2023-09-30T14:22:03;3.87;;;1.60;;
317;SDS011;146;53.448;10.228;2023-09-30T14:24:38;2.73;;;1.70;;
317;SDS011;146;53.448;10.228;2023-09-30T14:27:05;10.53;;;2.23;;
317;SDS011;146;53.448;10.228;2023-09-30T14:29:32;3.10;;;1.37;;
317;SDS011;146;53.448;10.228;2023-09-30T14:31:59;4.93;;;3.03;;
317;SDS011;146;53.448;10.228;2023-09-30T14:34:28;8.13;;;2.23;;
317;SDS011;146;53.448;10.228;2023-09-30T14:36:59;5.43;;;1.60;;
317;SDS011;146;53.448;10.228;2023-09-30T14:39:31;3.73;;;1.20;;
317;SDS011;146;53.448;10.228;2023-09-30T14:41:59;4.20;;;1.20;;
317;SDS011;146;53.448;10.228;2023-09-30T14:44:34;4.37;;;1.40;;
317;SDS011;146;53.448;10.228;2023-09-30T14:47:02;2.93;;;1.20;;
317;SDS011;146;53.448;10.228;2023-09-30T14:49:30;4.00;;;1.13;;
317;SDS011;146;53.448;10.228;2023-09-30T14:52:03;2.20;;;1.70;;
317;SDS011;146;53.448;10.228;2023-09-30T14:54:30;3.60;;;1.80;;
317;SDS011;146;53.448;10.228;2023-09-30T14:57:04;4.57;;;1.23;;
317;SDS011;146;53.448;10.228;2023-09-30T14:59:35;3.90;;;1.47;;
317;SDS011;146;53.448;10.228;2023-09-30T15:02:05;3.80;;;1.60;;
317;SDS011;146;53.448;10.228;2023-09-30T15:04:37;2.40;;;1.20;;
317;SDS011;146;53.448;10.228;2023-09-30T15:07:07;4.20;;;1.50;;
317;SDS011;146;53.448;10.228;2023-09-30T15:09:34;6.00;;;1.67;;
317;SDS011;146;53.448;10.228;2023-09-30T15:12:05;2.87;;;1.33;;
317;SDS011;146;53.448;10.228;2023-09-30T15:14:33;1.77;;;1.00;;
317;SDS011;146;53.448;10.228;2023-09-30T15:17:00;4.20;;;1.73;;
317;SDS011;146;53.448;10.228;2023-09-30T15:19:31;2.17;;;1.30;;
317;SDS011;146;53.448;10.228;2023-09-30T15:22:02;5.10;;;1.60;;
317;SDS011;146;53.448;10.228;2023-09-30T15:24:29;3.10;;;1.50;;
317;SDS011;146;53.448;10.228;2023-09-30T15:26:56;5.63;;;1.77;;
317;SDS011;146;53.448;10.228;2023-09-30T15:29:23;3.10;;;1.23;;
317;SDS011;146;53.448;10.228;2023-09-30T15:31:50;4.83;;;1.50;;
317;SDS011;146;53.448;10.228;2023-09-30T15:34:17;2.30;;;1.20;;
317;SDS011;146;53.448;10.228;2023-09-30T15:36:51;4.30;;;1.57;;
317;SDS011;146;53.448;10.228;2023-09-30T15:39:19;1.60;;;1.43;;
317;SDS011;146;53.448;10.228;2023-09-30T15:41:46;3.90;;;1.53;;
317;SDS011;146;53.448;10.228;2023-09-30T15:44:13;3.60;;;1.70;;
317;SDS011;146;53.448;10.228;2023-09-30T15:46:41;1.67;;;1.20;;
317;SDS011;146;53.448;10.228;2023-09-30T15:49:08;2.87;;;2.10;;
317;SDS011;146;53.448;10.228;2023-09-30T15:51:35;3.90;;;2.00;;
317;SDS011;146;53.448;10.228;2023-09-30T15:54:02;4.20;;;1.63;;
317;SDS011;146;53.448;10.228;2023-09-30T15:56:30;1.87;;;1.17;;
317;SDS011;146;53.448;10.228;2023-09-30T15:59:01;3.10;;;1.63;;
317;SDS011;146;53.448;10.228;2023-09-30T16:01:30;3.27;;;1.43;;
317;SDS011;146;53.448;10.228;2023-09-30T16:04:08;2.20;;;1.37;;
317;SDS011;146;53.448;10.228;2023-09-30T16:06:38;1.83;;;1.20;;
317;SDS011;146;53.448;10.228;2023-09-30T16:09:05;5.00;;;1.83;;
317;SDS011;146;53.448;10.228;2023-09-30T16:11:32;3.07;;;1.50;;
317;SDS011;146;53.448;10.228;2023-09-30T16:14:18;1.70;;;1.60;;